Time;durP1;ratioP1;P1;durP2;ratioP2;P2;SDS_P1;SDS_P2;PMS_P1;PMS_P2;Temp;Humidity;BMP_temperature;BMP_pressure;BME280_temperature;BME280_humidity;BME280_pressure;Samples;Min_cycle;Max_cycle;Signal;HPM_P1;HPM_P2
2022/08/28 00:59:36;1701352.00;5.67;3028.05;67257.00;0.22;117.02;;;;;24.00;3.60;;;;;;2513437;55;3612;31
2022/08/28 01:27:28;1548223.00;5.16;2734.19;58976.00;0.20;102.71;;;;;23.80;4.20;;;;;;2278716;61;1355;-87
2022/08/28 02:20:50;1239619.00;4.13;2162.02;38952.00;0.13;68.08;;;;;23.60;6.30;;;;;;2513873;40;3540;31
2022/08/28 02:38:25;1434215.00;4.78;2519.93;0.00;0.00;0.62;;;;;23.90;4.10;;;;;;2270227;61;1296;-88
2022/08/28 03:23:54;2165193.00;7.22;3969.22;135283.00;0.45;234.44;;;;;23.80;6.10;;;;;;2513130;55;3605;31
2022/08/28 04:54:11;1376175.00;4.59;2412.21;119820.00;0.40;207.77;;;;;23.80;6.00;;;;;;2514179;40;3467;31
2022/08/28 05:57:42;1901361.00;6.34;3423.71;88853.00;0.30;154.33;;;;;23.40;8.00;;;;;;2512882;55;3546;31
2022/08/28 06:57:58;2000436.00;6.67;3625.22;18350.00;0.06;32.41;;;;;23.50;9.70;;;;;;2279079;61;1354;-90
2022/08/28 07:55:52;1264806.00;4.22;2207.84;67611.00;0.23;117.63;;;;;24.10;6.50;;;;;;2270676;61;1051;-89
2022/08/28 09:18:59;1442723.00;4.81;2535.80;30111.00;0.10;52.78;;;;;27.50;1.00;;;;;;2274933;61;1368;-89
2022/08/28 09:21:29;175102.00;0.58;303.05;72954.00;0.24;126.86;;;;;27.70;1.00;;;;;;2272835;61;1152;-90
2022/08/28 10:19:05;453838.00;1.51;782.38;72812.00;0.24;126.62;;;;;26.00;1.00;;;;;;2424005;55;3127;31
2022/08/28 11:42:20;1517616.00;5.06;2676.31;0.00;0.00;0.62;;;;;27.00;1.00;;;;;;2502474;55;3601;31
2022/08/28 11:52:43;1491770.00;4.97;2627.64;0.00;0.00;0.62;;;;;26.70;1.00;;;;;;2279268;61;961;-89
2022/08/28 12:50:40;1559393.00;5.20;2755.38;130600.00;0.44;226.36;;;;;27.00;1.00;;;;;;2279037;61;1121;-90
2022/08/28 12:55:37;1033772.00;3.45;1792.38;68674.00;0.23;119.47;;;;;26.50;1.00;;;;;;1567014;56;3528;-89
2022/08/28 12:58:04;158423.00;0.53;274.32;0.00;0.00;0.62;;;;;26.60;1.00;;;;;;2280537;61;1281;-87
2022/08/28 13:00:35;140569.00;0.47;243.55;0.00;0.00;0.62;;;;;26.80;1.00;;;;;;2280510;61;1051;-87
2022/08/28 13:03:03;60778.00;0.20;105.82;0.00;0.00;0.62;;;;;27.50;1.00;;;;;;2280533;61;1032;-86
2022/08/28 13:05:34;214769.00;0.72;371.34;0.00;0.00;0.62;;;;;27.70;1.00;;;;;;2280452;61;1431;-85
2022/08/28 13:08:08;174618.00;0.58;302.22;0.00;0.00;0.62;;;;;27.20;1.00;;;;;;2280431;61;2155;-87
2022/08/28 13:10:47;127213.00;0.42;220.52;0.00;0.00;0.62;;;;;27.20;1.00;;;;;;2280541;61;1215;-87
2022/08/28 13:13:21;186653.00;0.62;322.95;0.00;0.00;0.62;;;;;26.70;1.00;;;;;;2284340;60;1223;-88
2022/08/28 13:15:55;208074.00;0.69;359.82;20969.00;0.07;36.95;;;;;26.20;1.00;;;;;;2284616;60;990;-87
2022/08/28 13:18:49;490212.00;1.63;844.97;32208.00;0.11;56.40;;;;;26.60;1.00;;;;;;2284570;60;1450;-87
2022/08/28 13:21:28;463207.00;1.54;798.50;31641.00;0.11;55.42;;;;;27.10;1.00;;;;;;2284418;60;1188;-86
2022/08/28 13:24:02;778573.00;2.60;1343.78;115450.00;0.38;200.23;;;;;27.00;1.00;;;;;;2280418;61;1433;-88
2022/08/28 13:26:32;625396.00;2.08;1078.09;21949.00;0.07;38.65;;;;;27.20;1.00;;;;;;2280423;61;2000;-87
2022/08/28 13:29:07;1162372.00;3.87;2022.33;74596.00;0.25;129.70;;;;;27.20;1.00;;;;;;2280344;61;1484;-85
2022/08/28 13:31:38;1243468.00;4.14;2169.01;128360.00;0.43;222.50;;;;;27.10;1.00;;;;;;2280472;61;1498;-88
2022/08/28 13:34:10;889979.00;2.97;1538.53;31344.00;0.10;54.91;;;;;26.90;1.00;;;;;;2280404;61;1449;-88
2022/08/28 13:36:52;1216972.00;4.06;2120.94;135535.00;0.45;234.87;;;;;27.00;1.00;;;;;;2280438;61;1605;-89
2022/08/28 13:39:25;819933.00;2.73;1415.91;8975.00;0.03;16.17;;;;;26.80;1.00;;;;;;2280470;61;1083;-87
2022/08/28 13:41:56;1162808.00;3.88;2023.12;106919.00;0.36;185.51;;;;;26.90;1.00;;;;;;2280349;61;1519;-87
2022/08/28 13:44:32;951068.00;3.17;1645.99;116875.00;0.39;202.69;;;;;27.00;1.00;;;;;;2280340;61;1545;-88
2022/08/28 13:47:00;634652.00;2.12;1094.09;107398.00;0.36;186.34;;;;;27.10;1.00;;;;;;2279750;55;3762;-86
2022/08/28 13:49:28;526789.00;1.76;907.96;0.00;0.00;0.62;;;;;27.00;1.00;;;;;;2272134;61;1098;-86
2022/08/28 13:51:59;762442.00;2.54;1315.70;21803.00;0.07;38.39;;;;;26.80;1.00;;;;;;2272219;61;1628;-87
2022/08/28 13:54:28;689895.00;2.30;1189.72;122070.00;0.41;211.65;;;;;27.00;1.00;;;;;;2272309;61;1071;-86
2022/08/28 13:56:57;1077276.00;3.59;1869.83;98846.00;0.33;171.58;;;;;27.30;1.00;;;;;;2272178;61;1387;-86
2022/08/28 13:59:24;1039918.00;3.47;1803.30;66727.00;0.22;116.10;;;;;27.60;1.00;;;;;;2272245;61;1424;-88
2022/08/28 14:04:41;0.00;0.00;0.62;0.00;0.00;0.62;;;;;27.20;1.00;;;;;;2272228;61;639;-86
2022/08/28 14:07:08;538929.00;1.80;928.88;82160.00;0.27;142.77;;;;;26.80;1.00;;;;;;2272240;61;1992;-87
2022/08/28 14:09:41;349431.00;1.16;602.88;0.00;0.00;0.62;;;;;26.90;1.00;;;;;;2272263;61;1047;-87
2022/08/28 14:12:09;293616.00;0.98;506.95;0.00;0.00;0.62;;;;;27.70;1.00;;;;;;2272317;61;999;-86
2022/08/28 14:14:37;683436.00;2.28;1178.53;24417.00;0.08;42.92;;;;;27.90;1.00;;;;;;2272182;61;1620;-87
2022/08/28 14:17:05;748624.00;2.50;1291.67;106905.00;0.36;185.49;;;;;28.30;1.00;;;;;;2272127;61;1669;-87
2022/08/28 14:19:32;922756.00;3.08;1596.12;125537.00;0.42;217.63;;;;;28.40;1.00;;;;;;2272251;61;959;-88
2022/08/28 14:21:59;452559.00;1.51;780.18;46307.00;0.15;80.80;;;;;28.10;1.00;;;;;;2272242;61;1120;-86
2022/08/28 14:24:28;739867.00;2.47;1276.44;71478.00;0.24;124.31;;;;;27.60;1.00;;;;;;2272020;61;1526;-88
2022/08/28 14:26:57;715911.00;2.39;1234.84;19885.00;0.07;35.07;;;;;27.20;1.00;;;;;;2272124;61;2006;-87
2022/08/28 14:29:24;856501.00;2.86;1479.85;75527.00;0.25;131.31;;;;;27.20;1.00;;;;;;2272097;61;1104;-90
2022/08/28 14:31:51;798913.00;2.66;1379.23;6268.00;0.02;11.48;;;;;27.60;1.00;;;;;;2272130;61;1637;-88
2022/08/28 14:34:23;1473268.00;4.91;2592.92;213395.00;0.71;368.98;;;;;27.50;1.00;;;;;;2272533;61;1390;-88
2022/08/28 14:36:53;747458.00;2.49;1289.64;47159.00;0.16;82.27;;;;;27.20;1.00;;;;;;2276169;61;1366;-86
2022/08/28 14:39:22;368710.00;1.23;636.02;0.00;0.00;0.62;;;;;27.20;1.00;;;;;;2276204;61;1097;-86
2022/08/28 14:41:50;539523.00;1.80;929.90;20517.00;0.07;36.17;;;;;27.40;1.00;;;;;;2276160;61;912;-87
2022/08/28 14:44:19;329816.00;1.10;569.17;0.00;0.00;0.62;;;;;27.50;1.00;;;;;;2276296;61;1098;-87
2022/08/28 14:46:49;641247.00;2.14;1105.50;81846.00;0.27;142.23;;;;;27.10;1.00;;;;;;2276028;61;1997;-88
2022/08/28 14:49:17;743262.00;2.48;1282.34;5482.00;0.02;10.12;;;;;27.20;1.00;;;;;;2276212;61;1114;-86
2022/08/28 14:51:46;879483.00;2.93;1520.11;43017.00;0.14;75.11;;;;;27.40;1.00;;;;;;2276212;61;1576;-87
2022/08/28 14:54:16;838801.00;2.80;1448.88;81319.00;0.27;141.32;;;;;27.50;1.00;;;;;;2276021;61;1184;-87
2022/08/28 14:56:45;1288404.00;4.29;2250.90;155562.00;0.52;269.39;;;;;27.40;1.00;;;;;;2276155;61;1276;-88
2022/08/28 14:59:14;1077090.00;3.59;1869.50;80496.00;0.27;139.89;;;;;27.60;1.00;;;;;;2276104;61;1715;-87
2022/08/28 15:01:43;1260357.00;4.20;2199.74;134950.00;0.45;233.86;;;;;27.70;1.00;;;;;;2276310;61;1109;-87
2022/08/28 15:04:14;915798.00;3.05;1583.88;146120.00;0.49;253.12;;;;;27.50;1.00;;;;;;2276920;61;1071;-88
2022/08/28 15:06:42;1165054.00;3.88;2027.16;116816.00;0.39;202.59;;;;;26.90;1.00;;;;;;2276753;61;1914;-85
2022/08/28 15:09:10;843444.00;2.81;1457.00;83390.00;0.28;144.89;;;;;26.80;1.00;;;;;;2276961;61;915;-87
2022/08/28 15:11:41;762322.00;2.54;1315.49;99967.00;0.33;173.51;;;;;26.80;1.00;;;;;;2276869;61;1032;-87
2022/08/28 15:14:08;547960.00;1.83;944.44;90078.00;0.30;156.44;;;;;26.70;1.00;;;;;;2276846;61;1114;-87
2022/08/28 15:16:39;1051527.00;3.51;1823.95;155167.00;0.52;268.71;;;;;26.60;1.00;;;;;;2273641;61;926;-87
2022/08/28 15:19:10;665336.00;2.22;1147.18;60073.00;0.20;104.60;;;;;26.40;1.00;;;;;;2272702;61;1437;-87
2022/08/28 15:21:41;840932.00;2.80;1452.60;98436.00;0.33;170.87;;;;;26.60;1.00;;;;;;2272812;61;936;-86
2022/08/28 15:24:09;805771.00;2.69;1391.19;47042.00;0.16;82.07;;;;;26.90;1.00;;;;;;2272746;61;1116;-89
2022/08/28 15:26:39;951170.00;3.17;1646.17;122358.00;0.41;212.15;;;;;26.90;1.00;;;;;;2272619;61;2135;-86
2022/08/28 15:29:07;1494691.00;4.98;2633.13;202173.00;0.67;349.66;;;;;27.20;1.00;;;;;;2272592;61;1358;-89
2022/08/28 15:31:42;829685.00;2.77;1432.94;121005.00;0.40;209.82;;;;;27.50;1.00;;;;;;2272794;61;1002;-88
2022/08/28 15:34:13;1301568.00;4.34;2274.98;51234.00;0.17;89.32;;;;;27.80;1.00;;;;;;2272705;61;1660;-88
2022/08/28 15:41:55;856745.00;2.86;1480.27;106762.00;0.36;185.24;;;;;27.10;1.00;;;;;;2272739;61;777;-87
2022/08/28 15:44:23;522742.00;1.74;900.99;88155.00;0.29;153.12;;;;;27.00;1.00;;;;;;2272568;61;1250;-87
2022/08/28 15:46:56;450418.00;1.50;776.50;124976.00;0.42;216.67;;;;;27.00;1.00;;;;;;2272522;61;1990;-89
2022/08/28 15:49:26;181145.00;0.60;313.46;61243.00;0.20;106.63;;;;;26.80;1.00;;;;;;2272624;61;1069;-88
2022/08/28 15:51:54;421633.00;1.41;727.00;76774.00;0.26;133.46;;;;;26.70;1.00;;;;;;2272615;61;1417;-87
2022/08/28 15:54:22;460899.00;1.54;794.53;63654.00;0.21;110.79;;;;;26.30;1.00;;;;;;2272576;61;2338;-88
2022/08/28 15:56:50;429225.00;1.43;740.05;84988.00;0.28;147.65;;;;;26.60;1.00;;;;;;2270610;55;3769;-87
2022/08/28 15:59:18;322546.00;1.08;556.67;62228.00;0.21;108.33;;;;;26.50;1.00;;;;;;2272663;60;1102;-86
2022/08/28 16:01:46;529006.00;1.76;911.78;196229.00;0.65;339.43;;;;;26.30;1.00;;;;;;2272621;60;1003;-87
2022/08/28 16:04:17;461560.00;1.54;795.67;66638.00;0.22;115.95;;;;;26.20;1.00;;;;;;2272464;60;1058;-88
2022/08/28 16:06:46;383363.00;1.28;661.21;79472.00;0.26;138.13;;;;;26.40;1.00;;;;;;2272354;60;1935;-87
2022/08/28 16:09:13;897789.00;2.99;1552.24;191955.00;0.64;332.07;;;;;26.60;1.00;;;;;;2272633;60;933;-88
2022/08/28 16:11:42;405149.00;1.35;698.66;67095.00;0.22;116.74;;;;;26.50;1.00;;;;;;2272539;60;1452;-86
2022/08/28 16:14:10;384512.00;1.28;663.18;96677.00;0.32;167.84;;;;;26.60;1.00;;;;;;2272510;60;1570;-90
2022/08/28 16:16:40;476218.00;1.59;820.89;82651.00;0.28;143.62;;;;;26.50;1.00;;;;;;2272596;60;1048;-88
2022/08/28 16:19:07;260628.00;0.87;450.23;51960.00;0.17;90.58;;;;;26.50;1.00;;;;;;2272582;60;1501;-88
2022/08/28 16:21:34;170099.00;0.57;294.44;61089.00;0.20;106.36;;;;;26.50;1.00;;;;;;2272558;60;1104;-87
2022/08/28 16:24:06;736854.00;2.46;1271.21;176480.00;0.59;305.43;;;;;26.30;1.00;;;;;;2272518;60;2208;-86
2022/08/28 16:26:35;277548.00;0.93;479.32;69039.00;0.23;120.10;;;;;26.10;1.00;;;;;;2272537;60;1225;-85
2022/08/28 16:29:02;370548.00;1.24;639.18;109002.00;0.36;189.11;;;;;26.20;1.00;;;;;;2272535;60;1928;-88
2022/08/28 16:31:29;157767.00;0.53;273.19;0.00;0.00;0.62;;;;;26.30;1.00;;;;;;2272424;60;1366;-89
2022/08/28 16:33:55;5542.00;0.02;10.22;0.00;0.00;0.62;;;;;26.30;1.00;;;;;;2272446;60;1507;-87
2022/08/28 16:36:25;87607.00;0.29;152.18;0.00;0.00;0.62;;;;;26.20;1.00;;;;;;2272517;60;1486;-87
2022/08/28 16:38:53;307135.00;1.02;530.18;25979.00;0.09;45.62;;;;;26.20;1.00;;;;;;2272572;60;1378;-88
2022/08/28 16:41:25;150220.00;0.50;260.19;0.00;0.00;0.62;;;;;26.30;1.00;;;;;;2272532;60;1059;-87
2022/08/28 16:43:53;161899.00;0.54;280.31;0.00;0.00;0.62;;;;;26.20;1.00;;;;;;2276287;39;3617;-85
2022/08/28 16:48:50;985571.00;3.29;1706.93;0.00;0.00;0.62;;;;;26.40;1.00;;;;;;2273890;61;1907;-88
2022/08/28 16:51:18;236073.00;0.79;408.00;0.00;0.00;0.62;;;;;26.20;1.00;;;;;;2272412;61;1519;-86
2022/08/28 16:53:46;156410.00;0.52;270.85;0.00;0.00;0.62;;;;;26.40;1.00;;;;;;2272415;61;1087;-87
2022/08/28 16:56:16;143519.00;0.48;248.64;0.00;0.00;0.62;;;;;26.60;1.00;;;;;;2272364;61;1836;-87
2022/08/28 16:58:44;166599.00;0.56;288.41;0.00;0.00;0.62;;;;;26.30;1.00;;;;;;2272396;61;1309;-88
2022/08/28 17:01:13;395645.00;1.32;682.32;96411.00;0.32;167.38;;;;;26.30;1.00;;;;;;2272454;61;1070;-88
2022/08/28 17:03:41;364256.00;1.21;628.36;41471.00;0.14;72.43;;;;;26.30;1.00;;;;;;2272488;61;1094;-87
2022/08/28 17:06:11;33829.00;0.11;59.21;0.00;0.00;0.62;;;;;26.20;1.00;;;;;;2272426;61;1009;-88
2022/08/28 17:08:38;159732.00;0.53;276.58;0.00;0.00;0.62;;;;;26.40;1.00;;;;;;2272252;61;1910;-89
2022/08/28 17:11:06;459947.00;1.53;792.89;47245.00;0.16;82.42;;;;;26.40;1.00;;;;;;2272420;61;1069;-87
2022/08/28 17:13:38;207178.00;0.69;358.28;0.00;0.00;0.62;;;;;26.60;1.00;;;;;;2272263;61;1513;-88
2022/08/28 17:16:07;216709.00;0.72;374.68;48451.00;0.16;84.51;;;;;26.20;1.00;;;;;;2272405;61;1031;-87
2022/08/28 17:18:37;140756.00;0.47;243.87;0.00;0.00;0.62;;;;;26.10;1.00;;;;;;2272384;61;1426;-87
2022/08/28 17:23:49;0.00;0.00;0.62;0.00;0.00;0.62;;;;;25.80;1.00;;;;;;2272450;61;645;-88
2022/08/28 17:26:18;166979.00;0.56;289.06;0.00;0.00;0.62;;;;;25.50;1.00;;;;;;2272298;61;990;-88
2022/08/28 17:28:45;356547.00;1.19;615.11;34574.00;0.12;60.50;;;;;25.40;1.00;;;;;;2272230;61;1915;-88
2022/08/28 17:31:14;199502.00;0.67;345.07;297.00;0.00;1.13;;;;;25.80;1.00;;;;;;2272294;61;1066;-87
2022/08/28 17:33:43;132222.00;0.44;229.16;0.00;0.00;0.62;;;;;25.90;1.00;;;;;;2272377;61;930;-88
2022/08/28 17:36:12;162036.00;0.54;280.55;0.00;0.00;0.62;;;;;25.80;1.00;;;;;;2272241;61;970;-87
2022/08/28 17:38:41;143986.00;0.48;249.44;0.00;0.00;0.62;;;;;25.70;1.00;;;;;;2272171;61;1566;-87
2022/08/28 17:41:09;118989032.00;396.63;68244088.00;0.00;0.00;0.62;;;;;25.80;1.00;;;;;;2272271;61;1524;-87
2022/08/28 17:43:37;563708.00;1.88;971.59;84450.00;0.28;146.72;;;;;25.90;1.00;;;;;;2272198;61;1491;-89
2022/08/28 17:46:05;226634.00;0.76;391.76;0.00;0.00;0.62;;;;;26.00;1.00;;;;;;2272409;61;897;-86
2022/08/28 17:48:35;135814.00;0.45;235.35;0.00;0.00;0.62;;;;;26.10;1.00;;;;;;2272196;61;2000;-88
2022/08/28 17:51:02;111568.00;0.37;193.54;0.00;0.00;0.62;;;;;26.20;1.00;;;;;;2272295;61;1074;-87
2022/08/28 17:53:29;46892.00;0.16;81.81;0.00;0.00;0.62;;;;;26.30;1.00;;;;;;2272375;61;1026;-88
2022/08/28 17:55:57;14582.00;0.05;25.89;0.00;0.00;0.62;;;;;26.40;1.00;;;;;;2272295;61;1098;-87
2022/08/28 17:58:24;25289.00;0.08;44.43;0.00;0.00;0.62;;;;;26.50;1.00;;;;;;2272171;61;2020;-88
2022/08/28 18:00:51;180021.00;0.60;311.53;0.00;0.00;0.62;;;;;26.40;1.00;;;;;;2272253;61;1649;-87
2022/08/28 18:03:18;213542.00;0.71;369.23;58581.00;0.20;102.02;;;;;26.50;1.00;;;;;;2272270;61;1030;-88
2022/08/28 18:05:46;348472.00;1.16;601.23;0.00;0.00;0.62;;;;;26.60;1.00;;;;;;2272214;61;1385;-87
2022/08/28 18:08:17;147100.00;0.49;254.81;0.00;0.00;0.62;;;;;26.70;1.00;;;;;;2272054;61;1918;-88
2022/08/28 18:10:48;332988.00;1.11;574.62;48793.00;0.16;85.10;;;;;26.60;1.00;;;;;;2272177;61;1592;-87
2022/08/28 18:13:18;292811.00;0.98;505.56;0.00;0.00;0.62;;;;;26.40;1.00;;;;;;2272145;61;1499;-87
2022/08/28 18:15:47;306460.00;1.02;529.02;25129.00;0.08;44.15;;;;;26.20;1.00;;;;;;2272205;61;1530;-87
2022/08/28 18:18:14;46916.00;0.16;81.85;0.00;0.00;0.62;;;;;26.10;1.00;;;;;;2272145;61;1316;-87
2022/08/28 18:20:42;357397.00;1.19;616.57;18331.00;0.06;32.38;;;;;26.30;1.00;;;;;;2272250;61;979;-89
2022/08/28 18:23:16;657590.00;2.19;1133.77;238780.00;0.80;412.65;;;;;26.50;1.00;;;;;;2272169;61;1719;-87
2022/08/28 18:25:44;461548.00;1.54;795.65;0.00;0.00;0.62;;;;;26.40;1.00;;;;;;2272137;61;1609;-86
2022/08/28 18:28:15;223610.00;0.75;386.55;0.00;0.00;0.62;;;;;26.30;1.00;;;;;;2272093;61;1919;-87
2022/08/28 18:30:43;559928.00;1.87;965.08;9763.00;0.03;17.54;;;;;26.50;1.00;;;;;;2272113;61;909;-88
2022/08/28 18:33:19;924051.00;3.08;1598.40;274113.00;0.91;473.42;;;;;26.60;1.00;;;;;;2272118;61;1516;-89
2022/08/28 18:35:46;434433.00;1.45;749.01;37554.00;0.13;65.66;;;;;26.70;1.00;;;;;;2272224;61;1499;-87
2022/08/28 18:46:02;1446881.00;4.82;2543.56;6137.00;0.02;11.26;;;;;26.10;1.00;;;;;;2248947;40;3610;-87
2022/08/28 18:48:32;524948.00;1.75;904.79;108292.00;0.36;187.88;;;;;26.20;1.00;;;;;;2276749;61;2016;-87
2022/08/28 18:50:59;472490.00;1.57;814.47;59749.00;0.20;104.04;;;;;26.30;1.00;;;;;;2276829;61;1633;-87
2022/08/28 18:53:28;208144.00;0.69;359.94;0.00;0.00;0.62;;;;;26.20;1.00;;;;;;2276929;61;918;-86
2022/08/28 18:55:55;108928.00;0.36;188.98;0.00;0.00;0.62;;;;;26.20;1.00;;;;;;2276907;61;1012;-87
2022/08/28 18:58:25;297992.00;0.99;514.47;0.00;0.00;0.62;;;;;26.10;1.00;;;;;;2276833;61;1728;-87
2022/08/28 19:00:53;216670.00;0.72;374.61;0.00;0.00;0.62;;;;;26.10;1.00;;;;;;2276913;61;1391;-89
2022/08/28 19:03:23;143227.00;0.48;248.13;0.00;0.00;0.62;;;;;26.10;1.00;;;;;;2276881;61;1134;-88
2022/08/28 19:05:51;448376.00;1.49;772.99;125902.00;0.42;218.26;;;;;26.10;1.00;;;;;;2276870;61;1461;-85
2022/08/28 19:08:18;572562.00;1.91;986.87;157418.00;0.52;272.59;;;;;25.80;1.00;;;;;;2276723;61;1997;-87
2022/08/28 19:10:46;218313.00;0.73;377.44;0.00;0.00;0.62;;;;;25.70;1.00;;;;;;2276683;61;1510;-87
2022/08/28 19:13:13;279350.00;0.93;482.42;51541.00;0.17;89.85;;;;;25.60;1.00;;;;;;2276637;61;1607;-88
2022/08/28 19:15:40;218774.00;0.73;378.23;0.00;0.00;0.62;;;;;25.70;1.00;;;;;;2276764;61;1517;-87
2022/08/28 19:18:08;270665.00;0.90;467.49;0.00;0.00;0.62;;;;;25.80;1.00;;;;;;2276761;61;1391;-88
2022/08/28 19:20:36;243921.00;0.81;421.50;37319.00;0.12;65.25;;;;;25.70;1.00;;;;;;2276745;61;1585;-88
2022/08/28 19:23:03;571989.00;1.91;985.88;82300.00;0.27;143.01;;;;;25.60;1.00;;;;;;2276776;61;2189;-88
2022/08/28 19:25:32;187439.00;0.62;324.30;0.00;0.00;0.62;;;;;25.50;1.00;;;;;;2276834;61;1129;-89
2022/08/28 19:28:01;405566.00;1.35;699.37;38002.00;0.13;66.43;;;;;25.50;1.00;;;;;;2272607;61;2008;-88
2022/08/28 19:30:31;338595.00;1.13;584.26;0.00;0.00;0.62;;;;;25.60;1.00;;;;;;2272734;61;1432;-87
2022/08/28 19:33:00;483006.00;1.61;832.57;0.00;0.00;0.62;;;;;25.70;1.00;;;;;;2272643;61;1202;-87
2022/08/28 19:35:27;587232.00;1.96;1012.18;43009.00;0.14;75.09;;;;;25.50;1.00;;;;;;2272625;61;1333;-87
2022/08/28 19:37:58;312560.00;1.04;539.51;67536.00;0.23;117.50;;;;;25.40;1.00;;;;;;2272689;61;1267;-87
2022/08/28 19:40:27;233463.00;0.78;403.51;65353.00;0.22;113.73;;;;;25.30;1.00;;;;;;2272728;61;982;-87
2022/08/28 19:42:56;442529.00;1.48;762.93;64778.00;0.22;112.74;;;;;25.30;1.00;;;;;;2272683;61;1439;-88
2022/08/28 19:45:23;285951.00;0.95;493.77;34902.00;0.12;61.07;;;;;25.20;1.00;;;;;;2272636;61;1524;-87
2022/08/28 19:47:51;306840.00;1.02;529.68;66082.00;0.22;114.99;;;;;25.30;1.00;;;;;;2275873;61;2103;-87
2022/08/28 19:50:19;153103.00;0.51;265.15;0.00;0.00;0.62;;;;;25.10;1.00;;;;;;2276757;61;1130;-87
2022/08/28 19:52:46;294900.00;0.98;509.15;0.00;0.00;0.62;;;;;24.90;1.00;;;;;;2276729;61;983;-88
2022/08/28 19:55:18;229777.00;0.77;397.17;22949.00;0.08;40.38;;;;;24.50;1.00;;;;;;2276658;61;1636;-87
2022/08/28 19:57:48;124058.00;0.41;215.08;0.00;0.00;0.62;;;;;24.30;1.00;;;;;;2276620;61;1467;-87
2022/08/28 20:00:17;187839.00;0.63;324.99;0.00;0.00;0.62;;;;;24.40;1.00;;;;;;2276651;61;1433;-88
2022/08/28 20:02:44;434170.00;1.45;748.56;14098.00;0.05;25.05;;;;;24.50;1.00;;;;;;2276574;61;1453;-89
2022/08/28 20:05:11;162581.00;0.54;281.49;12098.00;0.04;21.58;;;;;24.50;1.00;;;;;;2276678;61;1148;-88
2022/08/28 20:07:40;213586.00;0.71;369.31;1181.00;0.00;2.67;;;;;24.70;1.00;;;;;;2273895;61;1551;-87
2022/08/28 20:10:09;182663.00;0.61;316.08;0.00;0.00;0.62;;;;;24.70;1.00;;;;;;2272557;61;2010;-88
2022/08/28 20:12:38;130725.00;0.44;226.58;0.00;0.00;0.62;;;;;24.80;1.00;;;;;;2272559;61;1065;-88
2022/08/28 20:15:06;582249.00;1.94;1003.58;96744.00;0.32;167.95;;;;;24.80;1.00;;;;;;2272527;61;1448;-87
2022/08/28 20:17:33;206422.00;0.69;356.98;0.00;0.00;0.62;;;;;24.80;1.00;;;;;;2274593;61;1407;-88
2022/08/28 20:20:01;142899.00;0.48;247.57;0.00;0.00;0.62;;;;;24.70;1.00;;;;;;2276611;61;1048;-88
2022/08/28 20:22:28;300679.00;1.00;519.09;0.00;0.00;0.62;;;;;24.60;1.00;;;;;;2276568;61;1569;-87
2022/08/28 20:24:55;150539.00;0.50;260.74;0.00;0.00;0.62;;;;;24.70;1.00;;;;;;2276599;61;2197;-85
2022/08/28 20:27:22;420993.00;1.40;725.90;75558.00;0.25;131.36;;;;;24.60;1.00;;;;;;2276466;61;1558;-85
2022/08/28 20:29:51;339669.00;1.13;586.10;0.00;0.00;0.62;;;;;24.50;1.00;;;;;;2276460;61;1936;-88
2022/08/28 20:32:18;628197.00;2.09;1082.93;63088.00;0.21;109.81;;;;;24.50;1.00;;;;;;2276479;61;1632;-88
2022/08/28 20:34:45;487626.00;1.63;840.52;0.00;0.00;0.62;;;;;24.20;1.00;;;;;;2276592;61;1497;-87
2022/08/28 20:37:12;250361.00;0.83;432.57;0.00;0.00;0.62;;;;;24.10;1.00;;;;;;2276569;61;1298;-89
2022/08/28 20:39:40;84977.00;0.28;147.63;0.00;0.00;0.62;;;;;24.20;1.00;;;;;;2280630;61;1043;-88
2022/08/28 20:42:08;43528.00;0.15;75.99;0.00;0.00;0.62;;;;;24.10;1.00;;;;;;2280632;61;896;-86
2022/08/28 20:44:35;284747.00;0.95;491.70;4861.00;0.02;9.04;;;;;24.10;1.00;;;;;;2280607;61;1083;-87
2022/08/28 20:47:04;234460.00;0.78;405.22;0.00;0.00;0.62;;;;;24.10;1.00;;;;;;2280510;61;1381;-87
2022/08/28 20:49:31;195776.00;0.65;338.65;0.00;0.00;0.62;;;;;24.20;1.00;;;;;;2280531;61;1992;-87
2022/08/28 20:51:59;445536.00;1.49;768.10;35203.00;0.12;61.59;;;;;24.30;1.00;;;;;;2280575;61;2113;-88
2022/08/28 20:54:29;691408.00;2.30;1192.34;16130.00;0.05;28.57;;;;;24.20;1.00;;;;;;2280599;61;1047;-86
2022/08/28 20:56:58;1388224.00;4.63;2434.50;206547.00;0.69;357.19;;;;;24.10;1.00;;;;;;2280523;61;1475;-88
2022/08/28 20:59:27;1900365.00;6.33;3421.71;556834.00;1.86;959.74;;;;;24.10;1.00;;;;;;2279803;61;1467;-87
2022/08/28 21:01:55;788500.00;2.63;1361.07;45277.00;0.15;79.02;;;;;24.00;1.00;;;;;;2276255;61;1079;-89
2022/08/28 21:04:24;679267.00;2.26;1171.30;39472.00;0.13;68.97;;;;;23.90;1.00;;;;;;2272381;61;1581;-89
2022/08/28 21:06:51;1312452.00;4.37;2294.91;197278.00;0.66;341.24;;;;;23.90;1.00;;;;;;2272442;61;1415;-87
2022/08/28 21:09:18;996738.00;3.32;1726.70;89393.00;0.30;155.26;;;;;23.90;1.00;;;;;;2272303;61;1907;-89
2022/08/28 21:11:46;491511.00;1.64;847.21;0.00;0.00;0.62;;;;;23.90;1.00;;;;;;2272491;61;897;-87
2022/08/28 21:14:13;980294.00;3.27;1697.60;88906.00;0.30;154.42;;;;;23.80;1.00;;;;;;2272340;61;1628;-87
2022/08/28 21:16:41;1117605.00;3.73;1941.94;23912.00;0.08;42.04;;;;;23.80;1.00;;;;;;2272369;61;1027;-88
2022/08/28 21:19:09;1002590.00;3.34;1737.06;98040.00;0.33;170.19;;;;;23.90;1.00;;;;;;2272377;61;1307;-88
2022/08/28 21:21:37;1260705.00;4.20;2200.37;22507.00;0.08;39.61;;;;;24.00;1.00;;;;;;2272442;61;986;-87
2022/08/28 21:24:06;664083.00;2.21;1145.01;57866.00;0.19;100.79;;;;;23.90;1.00;;;;;;2273341;61;985;-89
2022/08/28 21:26:36;798751.00;2.66;1378.95;43984.00;0.15;76.78;;;;;24.00;1.00;;;;;;2276466;61;1042;-88
2022/08/28 21:29:03;1025182.00;3.42;1777.12;125353.00;0.42;217.32;;;;;24.10;1.00;;;;;;2276324;61;2010;-87
2022/08/28 21:31:30;913921.00;3.05;1580.58;59338.00;0.20;103.33;;;;;24.20;1.00;;;;;;2276465;61;1078;-86
2022/08/28 21:33:56;473253.00;1.58;815.79;72476.00;0.24;126.04;;;;;24.00;1.00;;;;;;2276407;61;1086;-88
2022/08/28 21:36:23;379339.00;1.26;654.29;66006.00;0.22;114.86;;;;;24.20;1.00;;;;;;2276394;61;1042;-88
2022/08/28 21:38:52;307427.00;1.02;530.69;50111.00;0.17;87.38;;;;;24.10;1.00;;;;;;2279205;61;1601;-87
2022/08/28 21:41:18;383480.00;1.28;661.41;66762.00;0.22;116.16;;;;;24.20;1.00;;;;;;2280482;61;1000;-88
2022/08/28 21:43:47;366086.00;1.22;631.51;38560.00;0.13;67.40;;;;;24.20;1.00;;;;;;2280480;61;1088;-87
2022/08/28 21:46:16;180159.00;0.60;311.76;62047.00;0.21;108.02;;;;;24.10;1.00;;;;;;2280340;61;1139;-87
2022/08/28 21:48:47;256552.00;0.86;443.22;61895.00;0.21;107.75;;;;;24.10;1.00;;;;;;2280417;61;1992;-86
2022/08/28 21:51:14;278228.00;0.93;480.49;63427.00;0.21;110.40;;;;;24.10;1.00;;;;;;2280424;61;1331;-88
2022/08/28 21:53:41;322968.00;1.08;557.40;58350.00;0.19;101.62;;;;;24.20;1.00;;;;;;2280376;61;1160;-87
2022/08/28 21:56:10;372538.00;1.24;642.60;133700.00;0.45;231.71;;;;;24.10;1.00;;;;;;2280388;61;988;-87
2022/08/28 21:58:38;304339.00;1.01;525.38;56378.00;0.19;98.21;;;;;23.70;1.00;;;;;;2280289;61;1398;-87
2022/08/28 22:01:05;262528.00;0.88;453.50;60629.00;0.20;105.56;;;;;23.50;1.00;;;;;;2280327;61;1692;-86
2022/08/28 22:03:33;318259.00;1.06;549.31;56245.00;0.19;97.99;;;;;23.40;1.00;;;;;;2280462;61;1023;-88
2022/08/28 22:05:59;190098.00;0.63;328.88;0.00;0.00;0.62;;;;;23.60;1.00;;;;;;2280382;61;1070;-86
2022/08/28 22:08:27;171551.00;0.57;296.94;0.00;0.00;0.62;;;;;23.80;1.00;;;;;;2280278;61;1990;-88
2022/08/28 22:10:55;31628.00;0.11;55.40;0.00;0.00;0.62;;;;;23.90;1.00;;;;;;2280585;61;1067;-89
2022/08/28 22:13:24;127701.00;0.43;221.36;0.00;0.00;0.62;;;;;24.00;1.00;;;;;;2281079;61;1631;-88
2022/08/28 22:15:52;211698.00;0.71;366.06;0.00;0.00;0.62;;;;;24.00;1.00;;;;;;2281147;61;1011;-88
2022/08/28 22:18:19;731501.00;2.44;1261.91;33887.00;0.11;59.31;;;;;24.00;1.00;;;;;;2281038;61;1610;-86
2022/08/28 22:23:34;136121.00;0.45;235.88;0.00;0.00;0.62;;;;;24.00;1.00;;;;;;2295967;58;676;-86